Latest Weather Observations for Larapuna (Eddystone Point)

IDT60801

Issued at 6:02 am EST Wednesday 29 June 2016 (issued every 30 minutes, with the page automatically refreshed every 10 minutes)

About weather observations | Map of weather stations | Latest weather observations for TAS | Other Formats
Station Details ID: 092045 Name: LARAPUNA (EDDYSTONE POINT) Lat: -40.99 Lon: 148.35 Height: 19.7 m
Data from the previous 72 hours. | See also: Recent months at Larapuna (Eddystone Point)
Date/Time
EST
Temp
°C
App
Temp
°C
Dew
Point
°C
Rel
Hum
%
Delta-T
°C
Wind Press
QNH
hPa
Press
MSL
hPa
Rain since
9am
mm
Dir  Spd
km/h
Gust
km/h
Spd
kts
Gust
kts
29/06:00am 11.7 5.6 8.2 79 1.7 WNW 30 44 16 24 1019.7 1019.7 0.0
29/05:30am 11.8 7.2 8.3 79 1.7 WNW 22 33 12 18 1020.0 1020.1 0.0
29/05:00am 11.7 8.8 8.2 79 1.7 W 13 26 7 14 1019.7 1019.7 0.0
29/04:30am 12.5 7.3 9.0 79 1.8 WNW 26 41 14 22 1019.2 1019.2 0.0
29/04:19am 12.6 6.7 9.2 80 1.7 WNW 30 48 16 26 1019.0 1019.0 0.0
29/04:00am 12.7 8.0 9.3 80 1.7 WNW 24 37 13 20 1018.9 1018.9 0.0
29/03:30am 12.6 7.6 9.4 81 1.6 WNW 26 41 14 22 1018.9 1018.9 0.0
29/03:00am 12.4 8.5 9.4 82 1.5 WNW 20 32 11 17 1018.9 1018.9 0.0
29/02:30am 12.1 7.6 8.6 79 1.7 WNW 22 33 12 18 1018.8 1018.8 0.0
29/02:00am 11.8 7.7 8.8 82 1.5 WNW 20 33 11 18 1018.8 1018.8 0.0
29/01:30am 11.7 7.9 8.9 83 1.4 WNW 19 30 10 16 1018.9 1018.9 0.0
29/01:00am 11.9 7.5 8.9 82 1.5 WNW 22 35 12 19 1019.1 1019.1 0.0
29/12:30am 12.5 7.7 9.0 79 1.8 NW 24 33 13 18 1018.7 1018.7 0.0
29/12:11am 12.8 7.4 9.6 81 1.6 WNW 28 50 15 27 1018.6 1018.6 0.0
29/12:00am 13.0 9.1 9.4 79 1.8 WNW 20 35 11 19 1018.8 1018.8 0.0
 
Date/Time
EST
Temp
°C
App
Temp
°C
Dew
Point
°C
Rel
Hum
%
Delta-T
°C
Wind Press
QNH
hPa
Press
MSL
hPa
Rain since
9am
mm
Dir  Spd
km/h
Gust
km/h
Spd
kts
Gust
kts
28/11:30pm 12.8 7.9 10.0 83 1.4 WNW 26 54 14 29 1018.8 1018.8 0.0
28/11:01pm 12.8 6.8 10.0 83 1.4 WNW 32 50 17 27 1018.8 1018.8 0.0
28/11:00pm 12.8 6.6 10.0 83 1.4 WNW 33 50 18 27 1018.8 1018.8 0.0
28/10:47pm 12.7 7.5 10.1 84 1.3 WNW 28 48 15 26 1018.9 1018.9 0.0
28/10:30pm 12.6 8.1 10.0 84 1.3 WNW 24 39 13 21 1018.9 1018.9 0.0
28/10:03pm 12.8 6.6 10.0 83 1.4 WNW 33 52 18 28 1018.8 1018.8 0.0
28/10:00pm 12.8 6.2 10.0 83 1.4 WNW 35 48 19 26 1018.8 1018.8 0.0
28/09:30pm 12.7 5.7 9.9 83 1.4 WNW 37 56 20 30 1018.3 1018.3 0.0
28/09:28pm 12.7 6.1 10.1 84 1.3 WNW 35 56 19 30 1018.3 1018.3 0.0
28/09:00pm 12.8 5.8 10.0 83 1.4 WNW 37 50 20 27 1018.3 1018.3 0.0
28/08:34pm 12.5 6.4 9.7 83 1.4 W 32 50 17 27 1018.0 1018.0 0.0
28/08:30pm 12.4 6.1 9.6 83 1.4 W 33 50 18 27 1018.0 1018.0 0.0
28/08:10pm 12.4 6.3 9.6 83 1.4 WNW 32 50 17 27 1018.2 1018.2 0.0
28/08:00pm 12.3 5.9 9.5 83 1.4 WNW 33 48 18 26 1018.1 1018.1 0.0
28/07:53pm 12.3 5.6 9.5 83 1.4 WNW 35 54 19 29 1018.0 1018.0 0.0
28/07:30pm 12.4 4.6 9.6 83 1.4 WNW 41 54 22 29 1017.7 1017.7 0.0
28/07:13pm 12.5 5.9 9.9 84 1.3 WNW 35 54 19 29 1017.7 1017.7 0.0
28/07:00pm 12.7 6.5 10.1 84 1.3 WNW 33 50 18 27 1017.7 1017.7 0.0
28/06:30pm 12.8 6.2 10.0 83 1.4 WNW 35 50 19 27 1017.6 1017.6 0.0
28/06:00pm 12.8 6.6 10.2 84 1.3 NW 33 46 18 25 1017.5 1017.5 0.0
28/05:30pm 13.0 5.6 10.0 82 1.5 WNW 39 52 21 28 1017.1 1017.1 0.0
28/05:00pm 13.1 6.5 9.9 81 1.6 NW 35 46 19 25 1017.0 1017.0 0.0
28/04:30pm 13.5 7.3 9.9 79 1.9 NW 33 46 18 25 1017.0 1017.0 0.0
28/04:00pm 13.7 8.4 9.9 78 2.0 NW 28 39 15 21 1016.9 1016.9 0.0
28/03:30pm 14.0 8.7 9.8 76 2.2 NW 28 43 15 23 1016.9 1016.9 0.0
28/03:00pm 14.3 9.3 9.5 73 2.5 NW 26 35 14 19 1016.7 1016.7 0.0
28/02:30pm 13.9 8.6 9.7 76 2.2 NW 28 37 15 20 1016.7 1016.7 0.0
28/02:00pm 14.1 8.0 9.9 76 2.2 WNW 32 50 17 27 1016.3 1016.3 0.0
28/01:51pm 14.1 8.1 10.1 77 2.1 NW 32 50 17 27 1016.4 1016.4 0.0
28/01:30pm 15.0 10.5 10.2 73 2.5 WNW 24 33 13 18 1016.4 1016.4 0.0
28/01:00pm 14.4 9.8 9.6 73 2.5 NW 24 41 13 22 1016.5 1016.5 0.0
28/12:30pm 14.0 7.8 9.4 74 2.4 WNW 32 44 17 24 1016.6 1016.6 0.0
28/12:00pm 13.6 8.3 9.8 78 2.0 WNW 28 44 15 24 1016.9 1016.9 0.0
28/11:30am 13.2 8.6 9.8 80 1.7 NW 24 33 13 18 1017.2 1017.2 0.0
28/11:00am 13.9 6.9 9.9 77 2.1 WNW 37 48 20 26 1016.7 1016.7 0.0
28/10:30am 13.2 7.2 10.0 81 1.6 WNW 32 43 17 23 1017.1 1017.1 0.0
28/10:00am 12.8 6.7 9.6 81 1.6 NW 32 43 17 23 1016.7 1016.7 0.0
28/09:30am 12.2 7.5 9.4 83 1.4 NW 24 28 13 15 1017.1 1017.1 0.0
28/09:00am 11.7 7.7 8.9 83 1.4 NW 20 26 11 14 1016.9 1016.9 0.6
28/08:30am 11.3 7.5 8.9 85 1.2 NW 19 24 10 13 1016.8 1016.8 0.6
28/08:00am 10.5 6.6 8.6 88 0.9 WNW 19 30 10 16 1016.1 1016.1 0.6
28/07:30am 9.9 7.4 8.2 89 0.8 NNW 11 19 6 10 1015.9 1015.9 0.6
28/07:00am 10.1 6.8 8.2 88 0.9 NW 15 20 8 11 1015.7 1015.7 0.6
28/06:30am 10.0 5.7 7.9 87 1.0 NW 20 28 11 15 1015.4 1015.4 0.6
28/06:00am 10.1 4.7 8.0 87 1.0 NW 26 32 14 17 1015.2 1015.2 0.6
28/05:30am 10.1 5.5 8.0 87 1.0 WNW 22 33 12 18 1014.9 1014.9 0.6
28/05:00am 9.8 5.5 7.7 87 1.0 NW 20 26 11 14 1014.7 1014.7 0.6
28/04:30am 9.4 5.2 7.5 88 0.9 NW 19 24 10 13 1014.6 1014.6 0.6
28/04:00am 9.0 5.1 7.3 89 0.8 NNW 17 20 9 11 1014.5 1014.5 0.6
28/03:30am 8.3 5.4 6.6 89 0.8 NNW 11 17 6 9 1014.6 1014.6 0.6
28/03:00am 8.6 4.0 6.6 87 0.9 NW 20 28 11 15 1014.6 1014.6 0.6
28/02:30am 8.2 3.6 5.8 85 1.1 NW 19 26 10 14 1014.6 1014.6 0.6
28/02:00am 8.3 4.5 5.6 83 1.2 NNW 15 20 8 11 1014.7 1014.7 0.6
28/01:30am 7.9 4.3 5.0 82 1.3 NNW 13 20 7 11 1014.8 1014.8 0.6
28/01:00am 8.1 3.8 5.2 82 1.3 NW 17 22 9 12 1014.8 1014.8 0.6
28/12:30am 7.6 4.0 4.9 83 1.2 NW 13 17 7 9 1015.0 1015.0 0.6
28/12:00am 7.6 3.3 5.1 84 1.1 NW 17 19 9 10 1015.1 1015.1 0.6
 
Date/Time
EST
Temp
°C
App
Temp
°C
Dew
Point
°C
Rel
Hum
%
Delta-T
°C
Wind Press
QNH
hPa
Press
MSL
hPa
Rain since
9am
mm
Dir  Spd
km/h
Gust
km/h
Spd
kts
Gust
kts
27/11:30pm 7.2 4.2 4.3 82 1.3 NNW 9 13 5 7 1015.1 1015.1 0.6
27/11:00pm 7.1 4.1 4.2 82 1.3 W 9 11 5 6 1015.0 1015.0 0.6
27/10:30pm 7.8 4.9 4.7 81 1.4 NNW 9 13 5 7 1015.0 1015.0 0.6
27/10:00pm 8.3 4.8 5.4 82 1.3 N 13 19 7 10 1014.9 1014.9 0.6
27/09:30pm 8.2 4.7 5.5 83 1.2 NNW 13 17 7 9 1014.7 1014.7 0.6
27/09:00pm 8.5 5.5 5.8 83 1.2 N 11 15 6 8 1014.7 1014.7 0.6
27/08:30pm 8.1 4.9 5.2 82 1.3 NNW 11 13 6 7 1014.4 1014.4 0.6
27/08:00pm 8.2 4.2 5.1 81 1.4 WNW 15 17 8 9 1014.3 1014.3 0.6
27/07:30pm 8.7 3.4 5.1 78 1.6 WNW 22 28 12 15 1014.1 1014.1 0.6
27/07:00pm 9.0 4.1 5.2 77 1.7 WNW 20 26 11 14 1013.8 1013.8 0.6
27/06:30pm 9.4 4.2 5.4 76 1.8 WNW 22 28 12 15 1013.6 1013.6 0.6
27/06:00pm 9.2 3.6 5.2 76 1.8 W 24 32 13 17 1013.0 1013.0 0.6
27/05:30pm 9.4 4.2 5.6 77 1.7 WNW 22 32 12 17 1012.7 1012.7 0.6
27/05:00pm 9.9 5.4 6.3 78 1.7 WNW 19 26 10 14 1012.3 1012.3 0.6
27/04:30pm 11.1 6.6 7.0 76 2.0 WNW 20 26 11 14 1012.1 1012.1 0.6
27/04:00pm 12.1 6.5 7.0 71 2.4 NW 26 32 14 17 1011.7 1011.7 0.6
27/03:30pm 12.9 7.9 8.0 72 2.4 NW 24 30 13 16 1011.7 1011.7 0.6
27/03:00pm 13.4 9.3 7.8 69 2.8 WNW 19 26 10 14 1011.6 1011.6 0.6
27/02:30pm 14.6 13.2 9.0 69 2.9 E 6 9 3 5 1011.4 1011.4 0.6
27/02:00pm 13.4 12.5 9.1 75 2.2 WSW 4 7 2 4 1011.1 1011.1 0.6
27/01:30pm 12.8 11.2 8.7 76 2.1 SE 7 13 4 7 1011.1 1011.1 0.6
27/01:00pm 13.0 10.3 9.1 77 2.0 SE 13 13 7 7 1011.2 1011.2 0.6
27/12:30pm 14.0 11.0 10.6 80 1.8 SSW 17 19 9 10 1011.3 1011.3 0.6
27/12:00pm 13.0 10.6 10.2 83 1.4 SW 13 17 7 9 1011.5 1011.5 0.6
27/11:30am 12.5 10.7 10.7 89 0.9 WNW 11 17 6 9 1011.7 1011.7 0.6
27/11:00am 10.9 8.7 9.5 91 0.7 W 11 17 6 9 1012.0 1012.0 0.6
27/10:30am 11.1 9.0 9.7 91 0.7 WSW 11 15 6 8 1012.2 1012.2 0.6
27/10:00am 11.2 9.1 9.8 91 0.7 WNW 11 17 6 9 1012.3 1012.3 0.4
27/09:30am 10.9 8.0 9.5 91 0.7 WNW 15 22 8 12 1012.4 1012.4 0.0
27/09:00am 10.6 7.6 9.4 92 0.6 NW 15 20 8 11 1012.3 1012.3 0.4
27/08:30am 10.5 8.3 9.3 92 0.6 NW 11 15 6 8 1012.2 1012.2 0.2
27/08:00am 10.0 6.9 8.8 92 0.6 WNW 15 19 8 10 1012.1 1012.1 0.2
27/07:30am 9.9 6.3 8.5 91 0.7 WNW 17 22 9 12 1012.0 1012.0 0.0
27/07:00am 10.0 5.5 8.4 90 0.8 WNW 22 32 12 17 1011.8 1011.8 0.0
27/06:30am 9.9 5.0 8.3 90 0.8 WNW 24 33 13 18 1011.6 1011.6 0.0
27/06:00am 10.0 5.4 8.1 88 0.9 WNW 22 28 12 15 1011.2 1011.2 0.0
27/05:30am 10.1 5.0 7.7 85 1.2 WNW 24 35 13 19 1011.0 1011.0 0.0
27/05:00am 10.7 6.2 6.3 74 2.1 NW 19 24 10 13 1010.9 1010.9 0.0
27/04:30am 9.8 5.3 6.3 79 1.6 NW 19 24 10 13 1010.6 1010.6 0.0
27/04:00am 9.9 5.5 6.4 79 1.6 NNW 19 24 10 13 1010.7 1010.7 0.0
27/03:30am 9.7 5.1 5.5 75 1.9 NW 19 26 10 14 1011.0 1011.0 0.0
27/03:00am 9.8 5.1 5.2 73 2.1 NNW 19 24 10 13 1011.3 1011.3 0.0
27/02:30am 9.2 4.9 5.2 76 1.8 NW 17 22 9 12 1011.2 1011.2 0.0
27/02:00am 9.3 4.5 5.5 77 1.7 NW 20 24 11 13 1011.4 1011.4 0.0
27/01:30am 9.7 5.1 5.7 76 1.8 NW 19 26 10 14 1011.4 1011.4 0.0
27/01:00am 9.9 5.1 5.7 75 1.9 NW 20 28 11 15 1011.6 1011.6 0.0
27/12:30am 10.1 4.9 5.5 73 2.1 NW 22 32 12 17 1011.7 1011.7 0.0
27/12:00am 10.1 4.1 5.1 71 2.3 NW 26 37 14 20 1012.0 1012.0 0.0
 
Date/Time
EST
Temp
°C
App
Temp
°C
Dew
Point
°C
Rel
Hum
%
Delta-T
°C
Wind Press
QNH
hPa
Press
MSL
hPa
Rain since
9am
mm
Dir  Spd
km/h
Gust
km/h
Spd
kts
Gust
kts
26/11:30pm 9.8 5.0 5.6 75 1.9 NW 20 30 11 16 1012.2 1012.2 0.0
26/11:00pm 9.8 5.3 6.2 78 1.7 WNW 19 24 10 13 1012.3 1012.3 0.0
26/10:30pm 9.4 4.2 5.6 77 1.7 WNW 22 33 12 18 1012.2 1012.2 0.0
26/10:00pm 9.6 4.8 4.8 72 2.1 NW 19 24 10 13 1012.4 1012.4 0.0
26/09:30pm 9.6 4.6 4.8 72 2.1 NW 20 32 11 17 1012.5 1012.5 0.0
26/09:00pm 9.4 3.8 5.2 75 1.9 NW 24 32 13 17 1012.8 1012.8 0.0
26/08:30pm 9.0 5.0 4.8 75 1.9 NW 15 22 8 12 1013.0 1013.0 0.0
26/08:00pm 9.1 5.1 4.7 74 2.0 WNW 15 20 8 11 1013.2 1013.2 0.0
26/07:30pm 9.0 5.4 5.0 76 1.8 WNW 13 22 7 12 1013.1 1013.1 0.0
26/07:00pm 9.2 6.0 5.0 75 1.9 WNW 11 20 6 11 1013.0 1013.0 0.0
26/06:30pm 9.7 6.1 5.1 73 2.1 WNW 13 20 7 11 1012.9 1012.9 0.0
26/06:00pm 9.8 6.3 5.4 74 2.0 WNW 13 24 7 13 1013.0 1013.0 0.0
26/05:30pm 10.1 5.5 5.7 74 2.0 WNW 19 28 10 15 1012.9 1012.9 0.0
26/05:00pm 10.6 5.9 6.2 74 2.1 WNW 20 30 11 16 1012.8 1012.8 0.0
26/04:30pm 11.1 5.7 6.3 72 2.3 WNW 24 33 13 18 1012.9 1012.9 0.0
26/04:00pm 11.8 6.4 6.3 69 2.6 WNW 24 35 13 19 1013.0 1013.0 0.0
26/03:30pm 12.5 7.2 7.0 69 2.6 WNW 24 37 13 20 1012.9 1012.9 0.0
26/03:01pm 12.9 6.7 6.3 64 3.1 WNW 28 46 15 25 1012.8 1012.8 0.0
26/03:00pm 13.0 7.5 6.1 63 3.3 WNW 24 39 13 21 1012.8 1012.8 0.0
26/02:30pm 14.1 8.5 7.2 63 3.4 W 26 39 14 21 1013.1 1013.1 0.0
26/02:00pm 14.1 9.0 7.6 65 3.2 WSW 24 32 13 17 1013.4 1013.4 0.0
26/01:30pm 13.9 8.2 6.7 62 3.5 W 26 41 14 22 1013.7 1013.7 0.0
26/01:04pm 13.9 7.9 7.0 63 3.4 WNW 28 46 15 25 1014.1 1014.1 0.0
26/01:00pm 13.6 8.3 6.9 64 3.2 W 24 37 13 20 1014.1 1014.1 0.0
26/12:30pm 13.0 5.9 6.6 65 3.1 W 33 48 18 26 1014.4 1014.4 0.0
26/12:00pm 12.4 5.8 6.2 66 2.9 W 30 46 16 25 1014.8 1014.8 0.0
26/11:55am 13.4 7.3 6.7 64 3.2 W 28 46 15 25 1014.9 1014.9 0.0
26/11:30am 12.9 5.4 6.5 65 3.1 W 35 50 19 27 1015.1 1015.1 0.0
26/11:00am 12.6 5.5 6.6 67 2.9 W 33 46 18 25 1015.4 1015.4 0.0
26/10:30am 12.0 4.9 6.3 68 2.7 W 33 52 18 28 1015.7 1015.7 0.0
26/10:24am 11.9 5.7 6.2 68 2.7 W 28 46 15 25 1015.8 1015.8 0.0
26/10:00am 11.1 4.6 6.5 73 2.2 W 30 39 16 21 1016.0 1016.0 0.0
26/09:30am 10.3 3.8 6.3 76 1.9 W 30 41 16 22 1016.1 1016.1 0.0
26/09:00am 9.6 3.0 6.1 79 1.6 W 30 41 16 22 1015.9 1015.9 0.0
26/08:30am 8.9 2.2 5.8 81 1.4 W 30 41 16 22 1016.0 1016.0 0.0
26/08:00am 8.3 1.5 5.2 81 1.4 W 30 41 16 22 1016.1 1016.1 0.0
26/07:30am 7.6 0.7 4.7 82 1.3 W 30 39 16 21 1015.8 1015.8 0.0
26/07:00am 7.4 1.7 4.7 83 1.2 WNW 24 35 13 19 1016.1 1016.1 0.0
26/06:30am 7.1 1.8 4.9 86 1.0 W 22 30 12 16 1016.1 1016.1 0.0

Other Formats:

Comma delimited format used in spreadsheet applications
http://www.bom.gov.au/fwo/IDT60801/IDT60801.94983.axf

JavaScript Object Notation format (JSON) in row-major order
http://www.bom.gov.au/fwo/IDT60801/IDT60801.94983.json